createdAt,value
2023-03-05T00:00:17.923Z,65.66
2023-03-05T00:00:38.991Z,65.66
2023-03-05T00:01:00.044Z,65.61
2023-03-05T00:01:21.102Z,65.63
2023-03-05T00:01:42.189Z,65.64
2023-03-05T00:02:04.775Z,65.67
2023-03-05T00:02:27.026Z,65.67
2023-03-05T00:02:48.313Z,65.61
2023-03-05T00:03:09.449Z,65.61
2023-03-05T00:03:30.637Z,65.62
2023-03-05T00:03:51.709Z,65.61
2023-03-05T00:04:12.807Z,65.58
2023-03-05T00:04:33.840Z,65.56
2023-03-05T00:04:54.901Z,65.59
2023-03-05T00:05:15.981Z,65.57
2023-03-05T00:05:37.009Z,65.53
2023-03-05T00:05:58.112Z,65.57
2023-03-05T00:06:19.146Z,65.56
2023-03-05T00:06:40.204Z,65.60
2023-03-05T00:07:01.268Z,65.55
2023-03-05T00:07:22.336Z,65.54
2023-03-05T00:07:43.402Z,65.52
2023-03-05T00:08:04.461Z,65.51
2023-03-05T00:08:25.512Z,65.54
2023-03-05T00:08:46.602Z,65.52
2023-03-05T00:09:07.630Z,65.47
2023-03-05T00:09:28.704Z,65.49
2023-03-05T00:09:49.829Z,65.46
2023-03-05T00:10:10.878Z,65.46
2023-03-05T00:10:31.921Z,65.47
2023-03-05T00:10:52.974Z,65.46
2023-03-05T00:11:14.034Z,65.49
2023-03-05T00:11:35.091Z,65.42
2023-03-05T00:11:56.147Z,65.51
2023-03-05T00:12:17.240Z,65.52
2023-03-05T00:12:38.269Z,65.45
2023-03-05T00:12:59.361Z,65.46
2023-03-05T00:13:20.578Z,65.51
2023-03-05T00:13:41.646Z,65.53
2023-03-05T00:14:02.730Z,65.51
2023-03-05T00:14:23.792Z,65.48
2023-03-05T00:14:44.867Z,65.44
2023-03-05T00:15:05.908Z,65.44
2023-03-05T00:15:27.008Z,65.39
2023-03-05T00:15:48.120Z,65.40
2023-03-05T00:16:09.271Z,65.47
2023-03-05T00:16:30.343Z,65.48
2023-03-05T00:16:51.387Z,65.41
2023-03-05T00:17:12.460Z,65.46
2023-03-05T00:17:33.561Z,65.44
2023-03-05T00:17:54.634Z,65.46
2023-03-05T00:18:15.680Z,65.52
2023-03-05T00:18:36.780Z,65.50
2023-03-05T00:18:57.840Z,65.49
2023-03-05T00:19:18.924Z,65.52
2023-03-05T00:19:39.978Z,65.51
2023-03-05T00:20:02.401Z,65.45
2023-03-05T00:20:23.566Z,65.47
2023-03-05T00:20:44.647Z,65.45
2023-03-05T00:21:05.721Z,65.44
2023-03-05T00:21:26.767Z,65.43
2023-03-05T00:21:47.847Z,65.45
2023-03-05T00:22:08.916Z,65.43
2023-03-05T00:22:29.971Z,65.45
2023-03-05T00:22:51.037Z,65.44
2023-03-05T00:23:12.092Z,65.47
2023-03-05T00:23:33.155Z,65.41
2023-03-05T00:23:54.235Z,65.44
2023-03-05T00:24:15.349Z,65.44
2023-03-05T00:24:36.410Z,65.45
2023-03-05T00:24:57.481Z,65.42
2023-03-05T00:25:18.563Z,65.36
2023-03-05T00:25:39.612Z,65.32
2023-03-05T00:26:00.668Z,65.32
2023-03-05T00:26:21.738Z,65.36
2023-03-05T00:26:42.842Z,65.34
2023-03-05T00:27:03.902Z,65.32
2023-03-05T00:27:24.956Z,65.36
2023-03-05T00:27:46.020Z,65.40
2023-03-05T00:28:07.151Z,65.33
2023-03-05T00:28:28.195Z,65.31
2023-03-05T00:28:49.269Z,65.25
2023-03-05T00:29:10.345Z,65.20
2023-03-05T00:29:31.871Z,65.15
2023-03-05T00:29:52.909Z,65.12
2023-03-05T00:30:13.989Z,65.11
2023-03-05T00:30:35.028Z,65.13
2023-03-05T00:30:56.112Z,65.13
2023-03-05T00:31:17.199Z,65.12
2023-03-05T00:31:38.343Z,65.14
2023-03-05T00:31:59.423Z,65.12
2023-03-05T00:32:20.557Z,65.07
2023-03-05T00:32:41.710Z,65.05
2023-03-05T00:33:02.745Z,65.05
2023-03-05T00:33:23.814Z,65.01
2023-03-05T00:33:44.909Z,65.00
2023-03-05T00:34:05.941Z,64.98
2023-03-05T00:34:27.043Z,64.97
2023-03-05T00:34:48.142Z,65.00
2023-03-05T00:35:09.206Z,64.98
2023-03-05T00:35:30.306Z,64.95
2023-03-05T00:35:51.418Z,64.96
2023-03-05T00:36:12.489Z,65.02
2023-03-05T00:36:33.544Z,64.96
2023-03-05T00:36:54.611Z,64.97
2023-03-05T00:37:15.668Z,64.97
2023-03-05T00:37:36.745Z,64.94
2023-03-05T00:37:57.805Z,64.96
2023-03-05T00:38:18.959Z,64.98
2023-03-05T00:38:39.994Z,64.97
2023-03-05T00:39:01.039Z,64.97
2023-03-05T00:39:22.122Z,64.96
2023-03-05T00:39:43.182Z,64.95
2023-03-05T00:40:04.285Z,64.95
2023-03-05T00:40:25.379Z,64.91
2023-03-05T00:40:46.558Z,64.92
2023-03-05T00:41:07.623Z,64.84
2023-03-05T00:41:28.691Z,64.84
2023-03-05T00:41:49.753Z,64.85
2023-03-05T00:42:10.817Z,64.86
2023-03-05T00:42:31.881Z,64.88
2023-03-05T00:42:52.936Z,64.89
2023-03-05T00:43:13.974Z,64.91
2023-03-05T00:43:35.059Z,64.93
2023-03-05T00:43:56.097Z,64.93
2023-03-05T00:44:17.167Z,64.91
2023-03-05T00:44:38.223Z,64.88
2023-03-05T00:44:59.342Z,64.84
2023-03-05T00:45:20.386Z,64.84
2023-03-05T00:45:41.443Z,64.81
2023-03-05T00:46:02.602Z,64.80
2023-03-05T00:46:23.763Z,64.81
2023-03-05T00:46:44.849Z,64.77
2023-03-05T00:47:05.945Z,64.74
2023-03-05T00:47:26.982Z,64.66
2023-03-05T00:47:48.120Z,64.71
2023-03-05T00:48:09.132Z,64.71
2023-03-05T00:48:30.194Z,64.69
2023-03-05T00:48:51.258Z,64.67
2023-03-05T00:49:12.312Z,64.68
2023-03-05T00:49:33.388Z,64.63
2023-03-05T00:49:54.435Z,64.63
2023-03-05T00:50:15.534Z,64.61
2023-03-05T00:50:36.568Z,64.62
2023-03-05T00:50:57.651Z,64.67
2023-03-05T00:51:18.712Z,64.60
2023-03-05T00:51:39.768Z,64.59
2023-03-05T00:52:00.831Z,64.62
2023-03-05T00:52:21.893Z,64.59
2023-03-05T00:52:42.953Z,64.59
2023-03-05T00:53:04.024Z,64.59
2023-03-05T00:53:25.135Z,64.54
2023-03-05T00:53:46.200Z,64.46
2023-03-05T00:54:07.250Z,64.45
2023-03-05T00:54:28.322Z,64.40
2023-03-05T00:54:49.340Z,64.37
2023-03-05T00:55:10.431Z,64.40
2023-03-05T00:55:31.550Z,64.33
2023-03-05T00:55:52.604Z,64.33
2023-03-05T00:56:13.756Z,64.30
2023-03-05T00:56:34.787Z,64.26
2023-03-05T00:56:55.867Z,64.25
2023-03-05T00:57:16.913Z,64.16
2023-03-05T00:57:37.966Z,64.04
2023-03-05T00:57:59.047Z,64.04
2023-03-05T00:58:20.105Z,63.98
2023-03-05T00:58:41.175Z,63.93
2023-03-05T00:59:02.239Z,63.88
2023-03-05T00:59:23.343Z,63.76
2023-03-05T00:59:44.410Z,63.73
2023-03-05T01:00:05.466Z,63.72
2023-03-05T01:00:26.632Z,63.64
2023-03-05T01:00:47.683Z,63.62
2023-03-05T01:01:08.753Z,63.56
2023-03-05T01:01:29.864Z,63.45
2023-03-05T01:01:50.948Z,63.33
2023-03-05T01:02:11.988Z,63.30
2023-03-05T01:02:34.766Z,63.27
2023-03-05T01:02:55.887Z,63.17
2023-03-05T01:03:16.991Z,63.19
2023-03-05T01:03:38.010Z,63.17
2023-03-05T01:03:59.145Z,63.02
2023-03-05T01:04:20.232Z,62.92
2023-03-05T01:04:41.304Z,62.75
2023-03-05T01:05:02.381Z,62.66
2023-03-05T01:05:23.544Z,62.51
2023-03-05T01:05:44.597Z,62.37
2023-03-05T01:06:05.685Z,62.27
2023-03-05T01:06:26.773Z,62.17
2023-03-05T01:06:47.834Z,62.14
2023-03-05T01:07:08.915Z,62.04
2023-03-05T01:07:29.992Z,61.92
2023-03-05T01:07:51.062Z,61.89
2023-03-05T01:08:12.137Z,61.72
2023-03-05T01:08:33.181Z,61.70
2023-03-05T01:08:54.259Z,61.65
2023-03-05T01:09:15.306Z,61.52
2023-03-05T01:09:36.375Z,61.37
2023-03-05T01:09:57.506Z,61.27
2023-03-05T01:10:18.512Z,61.13
2023-03-05T01:10:39.583Z,61.11
2023-03-05T01:11:00.648Z,61.08
2023-03-05T01:11:21.893Z,61.04
2023-03-05T01:11:42.997Z,61.00
2023-03-05T01:12:04.047Z,61.01
2023-03-05T01:12:25.106Z,60.92
2023-03-05T01:12:46.157Z,60.88
2023-03-05T01:13:07.236Z,60.87
2023-03-05T01:13:28.294Z,60.79
2023-03-05T01:13:49.363Z,60.72
2023-03-05T01:14:10.407Z,60.64
2023-03-05T01:14:31.487Z,60.57
2023-03-05T01:14:52.569Z,60.52
2023-03-05T01:15:13.598Z,60.44
2023-03-05T01:15:34.672Z,60.40
2023-03-05T01:15:55.740Z,60.36
2023-03-05T01:16:16.880Z,60.31
2023-03-05T01:16:37.981Z,60.27
2023-03-05T01:16:59.034Z,60.23
2023-03-05T01:17:20.131Z,60.13
2023-03-05T01:17:41.174Z,60.09
2023-03-05T01:18:02.297Z,59.92
2023-03-05T01:18:23.348Z,59.85
2023-03-05T01:18:44.422Z,59.80
2023-03-05T01:19:05.471Z,59.75
2023-03-05T01:19:26.543Z,59.76
2023-03-05T01:19:47.623Z,59.73
2023-03-05T01:20:08.677Z,59.70
2023-03-05T01:20:29.710Z,59.57
2023-03-05T01:20:50.777Z,59.52
2023-03-05T01:21:11.848Z,59.47
2023-03-05T01:21:32.890Z,59.46
2023-03-05T01:21:53.988Z,59.42
2023-03-05T01:22:15.084Z,59.42
2023-03-05T01:22:36.114Z,59.35
2023-03-05T01:22:57.163Z,59.28
2023-03-05T01:23:18.216Z,59.19
2023-03-05T01:23:39.272Z,59.10
2023-03-05T01:24:00.330Z,59.08
2023-03-05T01:24:21.398Z,59.05
2023-03-05T01:24:42.466Z,59.07
2023-03-05T01:25:03.502Z,59.05
2023-03-05T01:25:24.571Z,59.05
2023-03-05T01:25:45.625Z,59.06
2023-03-05T01:26:06.673Z,59.03
2023-03-05T01:26:27.746Z,59.03
2023-03-05T01:26:48.841Z,58.98
2023-03-05T01:27:10.041Z,58.90
2023-03-05T01:27:31.075Z,58.83
2023-03-05T01:27:52.144Z,58.79
2023-03-05T01:28:13.199Z,58.71
2023-03-05T01:28:34.262Z,58.66
2023-03-05T01:28:55.338Z,58.59
2023-03-05T01:29:16.427Z,58.55
2023-03-05T01:29:37.534Z,58.55
2023-03-05T01:29:58.596Z,58.52
2023-03-05T01:30:19.650Z,58.49
2023-03-05T01:30:40.711Z,58.46
2023-03-05T01:31:01.764Z,58.36
2023-03-05T01:31:22.872Z,58.30
2023-03-05T01:31:43.943Z,58.30
2023-03-05T01:32:05.044Z,58.35
2023-03-05T01:32:26.257Z,58.33
2023-03-05T01:32:47.289Z,58.30
2023-03-05T01:33:08.354Z,58.25
2023-03-05T01:33:29.411Z,58.18
2023-03-05T01:33:50.481Z,58.14
2023-03-05T01:34:11.550Z,58.09
2023-03-05T01:34:32.665Z,58.11
2023-03-05T01:34:53.704Z,58.09
2023-03-05T01:35:14.755Z,58.05
2023-03-05T01:35:35.871Z,58.02
2023-03-05T01:35:57.028Z,57.95
2023-03-05T01:36:18.856Z,57.99
2023-03-05T01:36:39.904Z,57.97
2023-03-05T01:37:00.958Z,57.92
2023-03-05T01:37:22.076Z,57.87
2023-03-05T01:37:43.122Z,57.83
2023-03-05T01:38:04.178Z,57.79
2023-03-05T01:38:25.232Z,57.79
2023-03-05T01:38:46.308Z,57.68
2023-03-05T01:39:07.357Z,57.67
2023-03-05T01:39:28.419Z,57.69
2023-03-05T01:39:49.488Z,57.66
2023-03-05T01:40:10.555Z,57.59
2023-03-05T01:40:31.624Z,57.51
2023-03-05T01:40:53.355Z,57.42
2023-03-05T01:41:14.537Z,57.43
2023-03-05T01:41:35.582Z,57.35
2023-03-05T01:41:56.646Z,57.30
2023-03-05T01:42:17.709Z,57.34
2023-03-05T01:42:38.772Z,57.32
2023-03-05T01:42:59.847Z,57.30
2023-03-05T01:43:20.899Z,57.24
2023-03-05T01:43:41.956Z,57.32
2023-03-05T01:44:03.007Z,57.29
2023-03-05T01:44:24.089Z,57.25
2023-03-05T01:44:45.152Z,57.27
2023-03-05T01:45:06.197Z,57.27
2023-03-05T01:45:27.280Z,57.18
2023-03-05T01:45:48.353Z,57.19
2023-03-05T01:46:09.472Z,57.23
2023-03-05T01:46:30.550Z,57.20
2023-03-05T01:46:51.607Z,57.23
2023-03-05T01:47:12.655Z,57.26
2023-03-05T01:47:33.716Z,57.24
2023-03-05T01:47:54.763Z,57.28
2023-03-05T01:48:15.885Z,57.31
2023-03-05T01:48:36.940Z,57.26
2023-03-05T01:48:57.996Z,57.20
2023-03-05T01:49:19.073Z,57.15
2023-03-05T01:49:40.116Z,57.12
2023-03-05T01:50:01.209Z,57.14
2023-03-05T01:50:22.264Z,57.12
2023-03-05T01:50:43.303Z,57.15
2023-03-05T01:51:04.390Z,57.15
2023-03-05T01:51:25.425Z,57.12
2023-03-05T01:51:46.532Z,57.08
2023-03-05T01:52:07.576Z,57.10
2023-03-05T01:52:28.639Z,57.10
2023-03-05T01:52:49.688Z,57.07
2023-03-05T01:53:10.764Z,57.08
2023-03-05T01:53:31.995Z,57.09
2023-03-05T01:53:53.055Z,57.00
2023-03-05T01:54:14.103Z,56.99
2023-03-05T01:54:35.184Z,56.99
2023-03-05T01:54:56.231Z,57.05
2023-03-05T01:55:17.295Z,57.03
2023-03-05T01:55:38.352Z,57.04
2023-03-05T01:55:59.435Z,57.04
2023-03-05T01:56:20.488Z,57.03
2023-03-05T01:56:41.555Z,57.02
2023-03-05T01:57:02.635Z,57.02
2023-03-05T01:57:23.685Z,57.04
2023-03-05T01:57:44.736Z,57.02
2023-03-05T01:58:05.797Z,57.05
2023-03-05T01:58:26.862Z,57.08
2023-03-05T01:58:47.932Z,57.10
2023-03-05T01:59:08.981Z,57.08
2023-03-05T01:59:30.049Z,57.05
2023-03-05T01:59:51.096Z,57.04
2023-03-05T02:00:12.169Z,57.05
2023-03-05T02:00:33.235Z,57.03
2023-03-05T02:00:54.306Z,57.01
2023-03-05T02:01:15.356Z,57.09
2023-03-05T02:01:36.423Z,57.13
2023-03-05T02:01:57.477Z,57.16
2023-03-05T02:02:18.557Z,57.16
2023-03-05T02:02:39.605Z,57.13
2023-03-05T02:03:00.688Z,57.10
2023-03-05T02:03:21.754Z,57.07
2023-03-05T02:03:42.863Z,57.05
2023-03-05T02:04:04.147Z,57.04
2023-03-05T02:04:25.286Z,57.07
2023-03-05T02:04:46.300Z,57.04
2023-03-05T02:05:07.377Z,57.09
2023-03-05T02:05:28.420Z,57.13
2023-03-05T02:05:49.494Z,57.11
2023-03-05T02:06:10.550Z,57.08
2023-03-05T02:06:31.612Z,57.12
2023-03-05T02:06:52.664Z,57.18
2023-03-05T02:07:13.735Z,57.21
2023-03-05T02:07:34.777Z,57.22
2023-03-05T02:07:55.905Z,57.27
2023-03-05T02:08:16.950Z,57.22
2023-03-05T02:08:38.005Z,57.24
2023-03-05T02:08:59.085Z,57.23
2023-03-05T02:09:20.134Z,57.23
2023-03-05T02:09:41.234Z,57.19
2023-03-05T02:10:02.279Z,57.13
2023-03-05T02:10:23.348Z,57.11
2023-03-05T02:10:44.434Z,57.10
2023-03-05T02:11:05.470Z,57.16
2023-03-05T02:11:26.513Z,57.20
2023-03-05T02:11:47.563Z,57.24
2023-03-05T02:12:08.640Z,57.22
2023-03-05T02:12:29.681Z,57.24
2023-03-05T02:12:50.744Z,57.23
2023-03-05T02:13:11.869Z,57.24
2023-03-05T02:13:32.906Z,57.32
2023-03-05T02:13:53.948Z,57.32
2023-03-05T02:14:15.010Z,57.29
2023-03-05T02:14:36.091Z,57.24
2023-03-05T02:14:57.222Z,57.23
2023-03-05T02:15:18.255Z,57.30
2023-03-05T02:15:39.320Z,57.35
2023-03-05T02:16:00.377Z,57.46
2023-03-05T02:16:21.475Z,57.55
2023-03-05T02:16:42.590Z,57.60
2023-03-05T02:17:03.627Z,57.65
2023-03-05T02:17:24.687Z,57.63
2023-03-05T02:17:45.738Z,57.60
2023-03-05T02:18:06.794Z,57.60
2023-03-05T02:18:27.944Z,57.53
2023-03-05T02:18:48.960Z,57.45
2023-03-05T02:19:10.035Z,57.44
2023-03-05T02:19:31.075Z,57.44
2023-03-05T02:19:52.166Z,57.37
2023-03-05T02:20:13.260Z,57.28
2023-03-05T02:20:34.291Z,57.26
2023-03-05T02:20:55.362Z,57.27
2023-03-05T02:21:16.409Z,57.25
2023-03-05T02:21:37.477Z,57.35
2023-03-05T02:21:58.530Z,57.35
2023-03-05T02:22:19.664Z,57.40
2023-03-05T02:22:40.712Z,57.45
2023-03-05T02:23:01.775Z,57.48
2023-03-05T02:23:22.853Z,57.51
2023-03-05T02:23:43.902Z,57.51
2023-03-05T02:24:04.964Z,57.54
2023-03-05T02:24:26.011Z,57.60
2023-03-05T02:24:47.076Z,57.62
2023-03-05T02:25:08.164Z,57.58
2023-03-05T02:25:29.260Z,57.51
2023-03-05T02:25:50.327Z,57.43
2023-03-05T02:26:11.349Z,57.46
2023-03-05T02:26:32.426Z,57.43
2023-03-05T02:26:53.477Z,57.40
2023-03-05T02:27:14.521Z,57.41
2023-03-05T02:27:35.586Z,57.37
2023-03-05T02:27:56.629Z,57.41
2023-03-05T02:28:17.693Z,57.45
2023-03-05T02:28:38.762Z,57.39
2023-03-05T02:28:59.858Z,57.41
2023-03-05T02:29:20.916Z,57.47
2023-03-05T02:29:41.950Z,57.58
2023-03-05T02:30:03.081Z,57.61
2023-03-05T02:30:24.165Z,57.67
2023-03-05T02:30:45.238Z,57.67
2023-03-05T02:31:06.270Z,57.66
2023-03-05T02:31:27.375Z,57.62
2023-03-05T02:31:48.560Z,57.54
2023-03-05T02:32:09.810Z,57.58
2023-03-05T02:32:30.936Z,57.61
2023-03-05T02:32:51.978Z,57.65
2023-03-05T02:33:13.092Z,57.66
2023-03-05T02:33:34.142Z,57.68
2023-03-05T02:33:55.235Z,57.68
2023-03-05T02:34:16.291Z,57.71
2023-03-05T02:34:37.318Z,57.69
2023-03-05T02:34:58.448Z,57.69
2023-03-05T02:35:19.558Z,57.74
2023-03-05T02:35:40.740Z,57.76
2023-03-05T02:36:01.766Z,57.83
2023-03-05T02:36:22.833Z,57.83
2023-03-05T02:36:43.885Z,57.75
2023-03-05T02:37:04.948Z,57.70
2023-03-05T02:37:25.999Z,57.69
2023-03-05T02:37:47.062Z,57.69
2023-03-05T02:38:08.124Z,57.71
2023-03-05T02:38:29.247Z,57.67
2023-03-05T02:38:50.279Z,57.60
2023-03-05T02:39:11.343Z,57.52
2023-03-05T02:39:32.400Z,57.46
2023-03-05T02:39:53.474Z,57.45
2023-03-05T02:40:14.515Z,57.49
2023-03-05T02:40:35.595Z,57.50
2023-03-05T02:40:56.801Z,57.53
2023-03-05T02:41:17.890Z,57.54
2023-03-05T02:41:38.978Z,57.60
2023-03-05T02:42:00.044Z,57.64
2023-03-05T02:42:21.110Z,57.65
2023-03-05T02:42:42.171Z,57.66
2023-03-05T02:43:03.233Z,57.68
2023-03-05T02:43:24.286Z,57.66
2023-03-05T02:43:45.323Z,57.70
2023-03-05T02:44:06.432Z,57.69
2023-03-05T02:44:27.545Z,57.62
2023-03-05T02:44:48.557Z,57.65
2023-03-05T02:45:09.630Z,57.60
2023-03-05T02:45:30.789Z,57.59
2023-03-05T02:45:51.855Z,57.55
2023-03-05T02:46:12.998Z,57.50
2023-03-05T02:46:34.048Z,57.49
2023-03-05T02:46:55.100Z,57.47
2023-03-05T02:47:16.168Z,57.42
2023-03-05T02:47:37.252Z,57.42
2023-03-05T02:47:58.317Z,57.47
2023-03-05T02:48:19.357Z,57.44
2023-03-05T02:48:40.415Z,57.53
2023-03-05T02:49:01.495Z,57.51
2023-03-05T02:49:22.533Z,57.51
2023-03-05T02:49:43.594Z,57.53
2023-03-05T02:50:04.649Z,57.55
2023-03-05T02:50:25.784Z,57.63
2023-03-05T02:50:46.814Z,57.65
2023-03-05T02:51:07.866Z,57.66
2023-03-05T02:51:29.104Z,57.64
2023-03-05T02:51:50.192Z,57.62
2023-03-05T02:52:11.241Z,57.60
2023-03-05T02:52:32.283Z,57.66
2023-03-05T02:52:53.331Z,57.74
2023-03-05T02:53:14.466Z,57.76
2023-03-05T02:53:35.489Z,57.80
2023-03-05T02:53:56.563Z,57.79
2023-03-05T02:54:17.668Z,57.84
2023-03-05T02:54:38.695Z,57.87
2023-03-05T02:54:59.763Z,57.84
2023-03-05T02:55:20.885Z,57.84
2023-03-05T02:55:41.907Z,57.86
2023-03-05T02:56:02.986Z,57.86
2023-03-05T02:56:24.030Z,57.83
2023-03-05T02:56:45.230Z,57.85
2023-03-05T02:57:06.304Z,57.83
2023-03-05T02:57:27.353Z,57.82
2023-03-05T02:57:48.409Z,57.82
2023-03-05T02:58:09.493Z,57.74
2023-03-05T02:58:30.520Z,57.77
2023-03-05T02:58:51.582Z,57.74
2023-03-05T02:59:12.640Z,57.73
2023-03-05T02:59:33.729Z,57.72
2023-03-05T02:59:54.847Z,57.70
2023-03-05T03:00:16.020Z,57.70
2023-03-05T03:00:37.075Z,57.63
2023-03-05T03:00:58.172Z,57.68
2023-03-05T03:01:19.248Z,57.65
2023-03-05T03:01:40.387Z,57.73
2023-03-05T03:02:01.469Z,57.79
2023-03-05T03:02:22.530Z,57.76
2023-03-05T03:02:43.689Z,57.74
2023-03-05T03:03:04.765Z,57.77
2023-03-05T03:03:25.877Z,57.78
2023-03-05T03:03:46.902Z,57.78
2023-03-05T03:04:07.960Z,57.82
2023-03-05T03:04:29.013Z,57.78
2023-03-05T03:04:50.072Z,57.81
2023-03-05T03:05:11.133Z,57.81
2023-03-05T03:05:32.226Z,57.87
2023-03-05T03:05:53.263Z,57.86
2023-03-05T03:06:14.318Z,57.85
2023-03-05T03:06:35.377Z,57.84
2023-03-05T03:06:56.448Z,57.88
2023-03-05T03:07:17.538Z,57.91
2023-03-05T03:07:38.677Z,57.89
2023-03-05T03:07:59.703Z,57.90
2023-03-05T03:08:20.752Z,57.90
2023-03-05T03:08:41.838Z,57.88
2023-03-05T03:09:02.907Z,57.79
2023-03-05T03:09:23.952Z,57.81
2023-03-05T03:09:45.005Z,57.77
2023-03-05T03:10:06.064Z,57.75
2023-03-05T03:10:27.120Z,57.73
2023-03-05T03:10:48.270Z,57.74
2023-03-05T03:11:09.339Z,57.74
2023-03-05T03:11:30.387Z,57.78
2023-03-05T03:11:51.461Z,57.79
2023-03-05T03:12:12.522Z,57.83
2023-03-05T03:12:33.597Z,57.91
2023-03-05T03:12:54.656Z,57.90
2023-03-05T03:13:15.715Z,57.92
2023-03-05T03:13:36.764Z,57.90
2023-03-05T03:13:57.910Z,57.93
2023-03-05T03:14:18.937Z,57.93
2023-03-05T03:14:39.976Z,57.91
2023-03-05T03:15:01.051Z,57.94
2023-03-05T03:15:22.106Z,57.97
2023-03-05T03:15:43.161Z,58.05
2023-03-05T03:16:04.222Z,58.12
2023-03-05T03:16:25.352Z,58.11
2023-03-05T03:16:46.442Z,58.11
2023-03-05T03:17:07.625Z,58.16
2023-03-05T03:17:28.753Z,58.17
2023-03-05T03:17:49.803Z,58.21
2023-03-05T03:18:10.967Z,58.21
2023-03-05T03:18:31.995Z,58.23
2023-03-05T03:18:53.043Z,58.27
2023-03-05T03:19:14.102Z,58.35
2023-03-05T03:19:35.245Z,58.32
2023-03-05T03:19:56.289Z,58.36
2023-03-05T03:20:17.353Z,58.36
2023-03-05T03:20:38.423Z,58.37
2023-03-05T03:20:59.459Z,58.45
2023-03-05T03:21:20.523Z,58.46
2023-03-05T03:21:41.590Z,58.39
2023-03-05T03:22:02.649Z,58.44
2023-03-05T03:22:23.705Z,58.44
2023-03-05T03:22:44.766Z,58.46
2023-03-05T03:23:05.866Z,58.37
2023-03-05T03:23:26.975Z,58.37
2023-03-05T03:23:48.007Z,58.39
2023-03-05T03:24:09.071Z,58.31
2023-03-05T03:24:30.122Z,58.31
2023-03-05T03:24:51.179Z,58.33
2023-03-05T03:25:12.238Z,58.31
2023-03-05T03:25:33.340Z,58.32
2023-03-05T03:25:54.385Z,58.31
2023-03-05T03:26:15.435Z,58.30
2023-03-05T03:26:36.497Z,58.31
2023-03-05T03:26:57.565Z,58.27
2023-03-05T03:27:18.616Z,58.21
2023-03-05T03:27:39.690Z,58.21
2023-03-05T03:28:00.756Z,58.27
2023-03-05T03:28:21.859Z,58.16
2023-03-05T03:28:42.902Z,58.12
2023-03-05T03:29:03.968Z,58.09
2023-03-05T03:29:25.017Z,58.00
2023-03-05T03:29:46.150Z,58.03
2023-03-05T03:30:07.164Z,58.00
2023-03-05T03:30:28.212Z,57.94
2023-03-05T03:30:49.308Z,57.93
2023-03-05T03:31:10.400Z,57.97
2023-03-05T03:31:31.510Z,58.02
2023-03-05T03:31:52.552Z,58.06
2023-03-05T03:32:13.661Z,58.04
2023-03-05T03:32:34.742Z,58.08
2023-03-05T03:32:55.821Z,58.11
2023-03-05T03:33:16.846Z,58.17
2023-03-05T03:33:37.948Z,58.19
2023-03-05T03:33:58.985Z,58.24
2023-03-05T03:34:20.037Z,58.23
2023-03-05T03:34:41.114Z,58.24
2023-03-05T03:35:02.166Z,58.28
2023-03-05T03:35:23.305Z,58.26
2023-03-05T03:35:44.378Z,58.22
2023-03-05T03:36:05.441Z,58.20
2023-03-05T03:36:26.491Z,58.17
2023-03-05T03:36:47.616Z,58.14
2023-03-05T03:37:08.674Z,58.21
2023-03-05T03:37:29.745Z,58.25
2023-03-05T03:37:50.783Z,58.25
2023-03-05T03:38:11.861Z,58.32
2023-03-05T03:38:32.922Z,58.35
2023-03-05T03:38:54.005Z,58.41
2023-03-05T03:39:15.096Z,58.48
2023-03-05T03:39:36.125Z,58.54
2023-03-05T03:39:57.216Z,58.60
2023-03-05T03:40:18.276Z,58.64
2023-03-05T03:40:39.340Z,58.60
2023-03-05T03:41:00.392Z,58.59
2023-03-05T03:41:21.432Z,58.52
2023-03-05T03:41:42.493Z,58.47
2023-03-05T03:42:03.570Z,58.39
2023-03-05T03:42:24.649Z,58.32
2023-03-05T03:42:45.685Z,58.29
2023-03-05T03:43:06.736Z,58.35
2023-03-05T03:43:27.797Z,58.37
2023-03-05T03:43:48.890Z,58.40
2023-03-05T03:44:09.952Z,58.41
2023-03-05T03:44:31.028Z,58.46
2023-03-05T03:44:52.102Z,58.54
2023-03-05T03:45:13.139Z,58.65
2023-03-05T03:45:34.196Z,58.75
2023-03-05T03:45:55.308Z,58.82
2023-03-05T03:46:16.435Z,58.89
2023-03-05T03:46:37.540Z,58.94
2023-03-05T03:46:58.645Z,58.93
2023-03-05T03:47:19.685Z,59.01
2023-03-05T03:47:40.750Z,59.03
2023-03-05T03:48:01.827Z,59.07
2023-03-05T03:48:22.860Z,59.08
2023-03-05T03:48:43.931Z,59.08
2023-03-05T03:49:05.000Z,59.09
2023-03-05T03:49:26.095Z,58.99
2023-03-05T03:49:47.160Z,58.93
2023-03-05T03:50:08.222Z,58.92
2023-03-05T03:50:29.299Z,58.90
2023-03-05T03:50:50.341Z,58.90
2023-03-05T03:51:11.404Z,58.89
2023-03-05T03:51:32.443Z,58.85
2023-03-05T03:51:53.492Z,58.85
2023-03-05T03:52:14.543Z,58.83
2023-03-05T03:52:35.610Z,58.86
2023-03-05T03:52:56.670Z,58.88
2023-03-05T03:53:17.735Z,58.85
2023-03-05T03:53:38.819Z,58.83
2023-03-05T03:53:59.857Z,58.82
2023-03-05T03:54:20.974Z,58.82
2023-03-05T03:54:42.059Z,58.79
2023-03-05T03:55:03.108Z,58.70
2023-03-05T03:55:24.139Z,58.61
2023-03-05T03:55:45.194Z,58.55
2023-03-05T03:56:06.257Z,58.52
2023-03-05T03:56:27.333Z,58.49
2023-03-05T03:56:48.399Z,58.49
2023-03-05T03:57:09.451Z,58.50
2023-03-05T03:57:30.566Z,58.54
2023-03-05T03:57:51.582Z,58.60
2023-03-05T03:58:12.647Z,58.58
2023-03-05T03:58:33.703Z,58.56
2023-03-05T03:58:54.762Z,58.55
2023-03-05T03:59:15.824Z,58.48
2023-03-05T03:59:36.924Z,58.49
2023-03-05T03:59:58.109Z,58.43
2023-03-05T04:00:19.173Z,58.40
2023-03-05T04:00:40.244Z,58.40
2023-03-05T04:01:01.309Z,58.35
2023-03-05T04:01:22.379Z,58.37
2023-03-05T04:01:43.419Z,58.31
2023-03-05T04:02:04.488Z,58.36
2023-03-05T04:02:25.569Z,58.36
2023-03-05T04:02:46.672Z,58.34
2023-03-05T04:03:07.745Z,58.39
2023-03-05T04:03:28.827Z,58.37
2023-03-05T04:03:49.868Z,58.37
2023-03-05T04:04:10.955Z,58.42
2023-03-05T04:04:32.025Z,58.46
2023-03-05T04:04:53.068Z,58.48
2023-03-05T04:05:14.133Z,58.47
2023-03-05T04:05:35.187Z,58.48
2023-03-05T04:05:56.300Z,58.51
2023-03-05T04:06:17.369Z,58.48
2023-03-05T04:06:38.412Z,58.46
2023-03-05T04:06:59.473Z,58.45
2023-03-05T04:07:20.583Z,58.37
2023-03-05T04:07:41.628Z,58.26
2023-03-05T04:08:02.678Z,58.19
2023-03-05T04:08:23.742Z,58.11
2023-03-05T04:08:44.825Z,58.07
2023-03-05T04:09:05.883Z,58.05
2023-03-05T04:09:26.930Z,58.02
2023-03-05T04:09:47.995Z,58.06
2023-03-05T04:10:09.060Z,58.03
2023-03-05T04:10:30.157Z,58.15
2023-03-05T04:10:51.210Z,58.20
2023-03-05T04:11:12.316Z,58.25
2023-03-05T04:11:33.346Z,58.23
2023-03-05T04:11:54.425Z,58.21
2023-03-05T04:12:15.468Z,58.16
2023-03-05T04:12:36.533Z,58.16
2023-03-05T04:12:57.584Z,58.15
2023-03-05T04:13:18.641Z,58.13
2023-03-05T04:13:39.716Z,58.09
2023-03-05T04:14:00.767Z,58.05
2023-03-05T04:14:21.812Z,58.09
2023-03-05T04:14:42.872Z,58.13
2023-03-05T04:15:03.947Z,58.15
2023-03-05T04:15:25.038Z,58.18
2023-03-05T04:15:46.107Z,58.20
2023-03-05T04:16:07.295Z,58.24
2023-03-05T04:16:28.325Z,58.18
2023-03-05T04:16:49.425Z,58.15
2023-03-05T04:17:10.478Z,58.18
2023-03-05T04:17:31.543Z,58.13
2023-03-05T04:17:52.599Z,58.17
2023-03-05T04:18:13.688Z,58.14
2023-03-05T04:18:34.746Z,58.22
2023-03-05T04:18:55.804Z,58.20
2023-03-05T04:19:16.846Z,58.20
2023-03-05T04:19:37.902Z,58.32
2023-03-05T04:19:58.965Z,58.38
2023-03-05T04:20:20.192Z,58.43
2023-03-05T04:20:41.218Z,58.52
2023-03-05T04:21:02.312Z,58.53
2023-03-05T04:21:23.360Z,58.61
2023-03-05T04:21:44.572Z,58.59
2023-03-05T04:22:05.609Z,58.56
2023-03-05T04:22:26.677Z,58.55
2023-03-05T04:22:47.732Z,58.59
2023-03-05T04:23:08.795Z,58.59
2023-03-05T04:23:29.860Z,58.63
2023-03-05T04:23:50.957Z,58.62
2023-03-05T04:24:12.007Z,58.65
2023-03-05T04:24:33.084Z,58.63
2023-03-05T04:24:54.138Z,58.72
2023-03-05T04:25:15.200Z,58.75
2023-03-05T04:25:36.275Z,58.77
2023-03-05T04:25:57.325Z,58.72
2023-03-05T04:26:18.509Z,58.66
2023-03-05T04:26:39.541Z,58.64
2023-03-05T04:27:00.592Z,58.61
2023-03-05T04:27:21.645Z,58.61
2023-03-05T04:27:42.698Z,58.65
2023-03-05T04:28:03.780Z,58.73
2023-03-05T04:28:24.839Z,58.78
2023-03-05T04:28:45.874Z,58.77
2023-03-05T04:29:06.953Z,58.88
2023-03-05T04:29:27.992Z,58.86
2023-03-05T04:29:49.056Z,58.93
2023-03-05T04:30:10.125Z,58.96
2023-03-05T04:30:31.197Z,58.90
2023-03-05T04:30:52.292Z,58.87
2023-03-05T04:31:13.357Z,58.84
2023-03-05T04:31:34.671Z,58.84